Time;durP1;ratioP1;P1;durP2;ratioP2;P2;SDS_P1;SDS_P2;PMS_P1;PMS_P2;Temp;Humidity;BMP_temperature;BMP_pressure;BME280_temperature;BME280_humidity;BME280_pressure;Samples;Min_cycle;Max_cycle;Signal;HPM_P1;HPM_P2
2022/06/29 00:02:05;;;;;;;11.98;3.83;;;22.60;99.90;;;;;;5058437;28;20044;-77
2022/06/29 00:04:32;;;;;;;13.25;3.95;;;22.60;99.90;;;;;;5064524;28;20052;-77
2022/06/29 00:06:58;;;;;;;12.75;3.65;;;22.60;99.90;;;;;;5068359;28;20373;-76
2022/06/29 00:09:23;;;;;;;13.93;4.00;;;22.60;99.90;;;;;;5066083;28;20041;-80
2022/06/29 00:11:50;;;;;;;8.07;3.80;;;22.60;99.90;;;;;;5069208;28;20052;-78
2022/06/29 00:14:16;;;;;;;11.60;3.70;;;22.50;99.90;;;;;;5063616;28;20060;-77
2022/06/29 00:16:43;;;;;;;12.80;3.53;;;22.40;99.90;;;;;;5062234;28;20036;-83
2022/06/29 00:19:08;;;;;;;12.85;3.90;;;22.40;99.90;;;;;;5068780;28;20041;-77
2022/06/29 00:21:34;;;;;;;8.35;3.33;;;22.40;99.90;;;;;;5062898;28;20041;-77
2022/06/29 00:24:00;;;;;;;13.90;3.50;;;22.30;99.90;;;;;;5067111;28;20092;-78
2022/06/29 00:26:27;;;;;;;8.02;3.60;;;22.30;99.90;;;;;;5080239;28;20040;-79
2022/06/29 00:28:55;;;;;;;12.27;3.47;;;22.20;99.90;;;;;;5084244;28;20036;-78
2022/06/29 00:31:21;;;;;;;9.73;3.03;;;22.20;99.90;;;;;;5079068;28;20036;-78
2022/06/29 00:33:47;;;;;;;9.65;3.40;;;22.30;99.90;;;;;;5083220;28;20632;-78
2022/06/29 00:36:13;;;;;;;8.30;3.13;;;22.30;99.90;;;;;;5062698;28;20345;-80
2022/06/29 00:38:39;;;;;;;8.88;3.10;;;22.20;99.90;;;;;;5078623;28;20033;-77
2022/06/29 00:41:05;;;;;;;9.40;3.30;;;22.20;99.90;;;;;;5060930;28;20059;-77
2022/06/29 00:43:42;;;;;;;11.40;2.95;;;22.20;99.90;;;;;;5066110;28;20029;-77
2022/06/29 00:46:08;;;;;;;11.63;3.33;;;22.20;99.90;;;;;;5063676;28;20029;-77
2022/06/29 00:48:37;;;;;;;13.05;3.35;;;22.10;99.90;;;;;;5075424;28;20045;-78
2022/06/29 00:51:04;;;;;;;7.72;3.20;;;22.20;99.90;;;;;;5065055;28;20025;-78
2022/06/29 00:53:37;;;;;;;10.75;3.53;;;22.10;99.90;;;;;;5062485;28;20630;-77
2022/06/29 00:56:07;;;;;;;8.88;3.25;;;22.20;99.90;;;;;;5079447;28;20044;-77
2022/06/29 00:58:35;;;;;;;11.20;3.95;;;22.10;99.90;;;;;;5065593;28;20041;-78
2022/06/29 01:01:04;;;;;;;12.40;3.75;;;22.00;99.90;;;;;;5079252;28;20029;-78
2022/06/29 01:03:32;;;;;;;10.65;3.30;;;22.10;99.90;;;;;;5082032;28;20411;-78
2022/06/29 01:06:00;;;;;;;13.32;3.15;;;22.10;99.90;;;;;;5067699;28;20472;-79
2022/06/29 01:08:26;;;;;;;10.90;3.42;;;22.00;99.90;;;;;;5062843;28;20029;-79
2022/06/29 01:10:52;;;;;;;8.93;2.88;;;22.00;99.90;;;;;;5064628;28;20059;-78
2022/06/29 01:13:18;;;;;;;10.02;3.17;;;22.00;99.90;;;;;;5066881;28;20044;-78
2022/06/29 01:15:44;;;;;;;10.70;3.25;;;21.90;99.90;;;;;;5083505;28;20089;-77
2022/06/29 01:18:10;;;;;;;13.55;3.50;;;21.90;99.90;;;;;;5068391;28;20043;-77
2022/06/29 01:20:38;;;;;;;8.20;2.60;;;21.90;99.90;;;;;;5065679;28;20028;-76
2022/06/29 01:23:03;;;;;;;9.23;2.42;;;21.80;99.90;;;;;;5064805;28;20086;-78
2022/06/29 01:25:29;;;;;;;8.98;3.10;;;21.70;99.90;;;;;;5066068;28;20037;-77
2022/06/29 01:27:58;;;;;;;8.43;2.72;;;21.70;99.90;;;;;;5066487;28;20028;-80
2022/06/29 01:30:26;;;;;;;11.00;2.90;;;21.60;99.90;;;;;;5057147;28;20083;-80
2022/06/29 01:32:53;;;;;;;8.98;3.40;;;21.50;99.90;;;;;;5064701;28;20024;-76
2022/06/29 01:35:22;;;;;;;9.27;2.55;;;21.60;99.90;;;;;;5063319;28;20040;-78
2022/06/29 01:37:50;;;;;;;6.03;2.28;;;21.50;99.90;;;;;;5079441;28;20115;-76
2022/06/29 01:40:18;;;;;;;6.57;2.20;;;21.50;99.90;;;;;;5065623;28;20060;-78
2022/06/29 01:42:44;;;;;;;4.80;2.10;;;21.60;99.90;;;;;;5081301;28;20040;-76
2022/06/29 01:45:10;;;;;;;6.60;2.40;;;21.60;99.90;;;;;;5065088;28;20685;-78
2022/06/29 01:47:36;;;;;;;7.40;1.90;;;21.60;99.90;;;;;;5084583;28;20102;-78
2022/06/29 01:50:03;;;;;;;6.32;1.95;;;21.60;99.90;;;;;;5071242;28;20032;-78
2022/06/29 01:52:29;;;;;;;8.05;2.00;;;21.60;99.90;;;;;;5067891;28;20044;-76
2022/06/29 01:54:56;;;;;;;5.18;1.80;;;21.50;99.90;;;;;;5070074;28;20032;-76
2022/06/29 01:57:23;;;;;;;5.68;2.15;;;21.60;99.90;;;;;;5084129;28;20044;-78
2022/06/29 01:59:50;;;;;;;6.60;1.73;;;21.70;99.90;;;;;;5064239;28;20039;-79
2022/06/29 02:02:16;;;;;;;6.53;1.65;;;21.70;99.90;;;;;;5085278;28;20609;-78
2022/06/29 02:04:42;;;;;;;5.63;2.30;;;21.70;99.90;;;;;;5067292;28;20036;-76
2022/06/29 02:07:09;;;;;;;6.43;2.03;;;21.70;99.90;;;;;;5070555;28;20028;-78
2022/06/29 02:09:36;;;;;;;5.25;1.60;;;21.70;99.90;;;;;;5067453;28;20040;-77
2022/06/29 02:12:02;;;;;;;5.32;1.45;;;21.70;99.90;;;;;;5072712;28;20025;-77
2022/06/29 02:14:29;;;;;;;3.83;1.70;;;21.70;99.90;;;;;;5084402;28;20041;-77
2022/06/29 02:16:58;;;;;;;5.97;1.92;;;21.70;99.90;;;;;;5071120;28;20040;-78
2022/06/29 02:19:24;;;;;;;5.30;2.00;;;21.70;99.90;;;;;;5065248;28;20096;-77
2022/06/29 02:21:50;;;;;;;6.57;2.35;;;21.70;99.90;;;;;;5079235;28;20518;-78
2022/06/29 02:24:16;;;;;;;5.70;1.83;;;21.60;99.90;;;;;;5086416;28;20093;-77
2022/06/29 02:26:44;;;;;;;3.58;1.70;;;21.60;99.90;;;;;;5069283;28;20085;-77
2022/06/29 02:29:11;;;;;;;5.45;1.60;;;21.50;99.90;;;;;;5066783;28;20045;-78
2022/06/29 02:37:08;;;;;;;9.75;2.28;;;21.40;99.90;;;;;;5065981;28;20074;-77
2022/06/29 02:39:33;;;;;;;4.82;2.28;;;21.40;99.90;;;;;;5067643;28;20067;-78
2022/06/29 02:42:00;;;;;;;8.10;2.30;;;21.30;99.90;;;;;;5069870;28;20135;-76
2022/06/29 02:44:26;;;;;;;4.22;2.00;;;21.30;99.90;;;;;;5085947;28;20048;-80
2022/06/29 02:46:55;;;;;;;4.63;1.95;;;21.30;99.90;;;;;;5066581;28;20056;-77
2022/06/29 02:49:22;;;;;;;8.55;2.10;;;21.20;99.90;;;;;;5065508;28;20135;-77
2022/06/29 02:51:48;;;;;;;5.15;2.22;;;21.30;99.90;;;;;;5066062;28;20111;-77
2022/06/29 02:54:14;;;;;;;4.38;1.67;;;21.30;99.90;;;;;;5079275;28;20084;-76
2022/06/29 02:56:40;;;;;;;4.10;1.80;;;21.30;99.90;;;;;;5086615;28;21115;-78
2022/06/29 02:59:06;;;;;;;4.30;1.98;;;21.40;99.90;;;;;;5082966;28;20536;-76
2022/06/29 03:01:33;;;;;;;5.53;1.77;;;21.40;99.90;;;;;;5064506;28;20040;-75
2022/06/29 03:03:59;;;;;;;6.45;1.70;;;21.40;99.90;;;;;;5079924;28;20028;-79
2022/06/29 03:06:26;;;;;;;5.00;1.80;;;21.40;99.90;;;;;;5080654;28;20174;-76
2022/06/29 03:08:52;;;;;;;6.35;1.98;;;21.40;99.90;;;;;;5068757;28;20482;-78
2022/06/29 03:11:19;;;;;;;6.53;1.85;;;21.40;99.90;;;;;;5060660;28;20499;-77
2022/06/29 03:13:45;;;;;;;5.90;1.90;;;21.40;99.90;;;;;;5064381;28;20029;-76
2022/06/29 03:16:10;;;;;;;4.63;2.10;;;21.30;99.90;;;;;;5067853;28;20124;-76
2022/06/29 03:18:36;;;;;;;4.30;2.30;;;21.30;99.90;;;;;;5067827;28;20067;-78
2022/06/29 03:21:03;;;;;;;6.18;2.15;;;21.30;99.90;;;;;;5083054;28;20125;-77
2022/06/29 03:23:30;;;;;;;6.78;2.25;;;21.30;99.90;;;;;;5068112;28;20029;-77
2022/06/29 03:25:56;;;;;;;5.30;2.00;;;21.40;99.90;;;;;;5084557;28;20032;-77
2022/06/29 03:28:22;;;;;;;4.95;1.90;;;21.40;99.90;;;;;;5065323;28;20072;-77
2022/06/29 03:30:48;;;;;;;6.40;2.20;;;21.30;99.90;;;;;;5062938;28;20438;-77
2022/06/29 03:33:14;;;;;;;4.20;1.80;;;21.30;99.90;;;;;;5082626;28;20029;-81
2022/06/29 03:35:40;;;;;;;4.57;1.77;;;21.30;99.90;;;;;;5065478;28;20041;-77
2022/06/29 03:38:05;;;;;;;4.90;1.75;;;21.20;99.90;;;;;;5063683;28;20041;-76
2022/06/29 03:40:31;;;;;;;3.97;1.50;;;21.20;99.90;;;;;;5064297;28;20040;-81
2022/06/29 03:42:57;;;;;;;3.47;1.42;;;21.10;99.90;;;;;;5055697;28;20037;-76
2022/06/29 03:45:24;;;;;;;7.30;1.90;;;21.00;99.90;;;;;;5049663;28;20047;-74
2022/06/29 03:47:52;;;;;;;6.07;1.92;;;21.00;99.90;;;;;;5083045;28;20036;-78
2022/06/29 03:50:18;;;;;;;7.13;1.85;;;21.00;99.90;;;;;;5083014;28;20040;-80
2022/06/29 03:52:44;;;;;;;6.75;1.88;;;21.00;99.90;;;;;;5056008;28;20040;-79
2022/06/29 03:55:10;;;;;;;4.65;1.67;;;20.90;99.90;;;;;;5050562;28;20063;-76
2022/06/29 03:57:37;;;;;;;6.60;2.10;;;20.90;99.90;;;;;;5080248;28;20064;-77
2022/06/29 04:00:04;;;;;;;4.07;1.60;;;20.80;99.90;;;;;;5040436;28;20126;-81
2022/06/29 04:02:30;;;;;;;6.15;2.05;;;20.80;99.90;;;;;;5091802;28;20112;-77
2022/06/29 04:04:55;;;;;;;5.25;2.10;;;20.90;99.90;;;;;;5081213;28;20067;-78
2022/06/29 04:07:21;;;;;;;8.20;2.20;;;20.90;99.90;;;;;;5048623;28;20526;-79
2022/06/29 04:09:47;;;;;;;7.05;2.35;;;20.90;99.90;;;;;;5044098;28;20040;-77
2022/06/29 04:12:13;;;;;;;5.63;2.33;;;20.90;99.90;;;;;;5047025;28;20789;-77
2022/06/29 04:14:40;;;;;;;6.75;2.15;;;20.90;99.90;;;;;;5045281;28;20481;-80
2022/06/29 04:17:09;;;;;;;7.75;2.15;;;20.90;99.90;;;;;;5047379;28;20045;-77
2022/06/29 04:19:35;;;;;;;10.70;2.50;;;20.80;99.90;;;;;;5062125;28;20037;-77
2022/06/29 04:22:03;;;;;;;7.78;2.28;;;20.90;99.90;;;;;;5050166;28;20032;-77
2022/06/29 04:24:29;;;;;;;5.53;2.03;;;20.90;99.90;;;;;;5036029;28;20033;-76
2022/06/29 04:26:55;;;;;;;4.10;1.90;;;20.90;99.90;;;;;;5042657;28;20132;-79
2022/06/29 04:29:21;;;;;;;6.03;2.38;;;20.80;99.90;;;;;;5051286;28;20041;-76
2022/06/29 04:31:47;;;;;;;7.07;2.05;;;20.80;99.90;;;;;;5046635;28;20045;-75
2022/06/29 04:34:13;;;;;;;5.90;1.83;;;20.70;99.90;;;;;;5042958;28;20099;-79
2022/06/29 04:36:40;;;;;;;6.18;2.13;;;20.70;99.90;;;;;;5059280;28;20037;-77
2022/06/29 04:39:07;;;;;;;7.28;1.77;;;20.80;99.90;;;;;;5043686;28;20400;-78
2022/06/29 04:41:35;;;;;;;7.63;1.92;;;20.70;99.90;;;;;;5061414;28;20037;-77
2022/06/29 04:44:01;;;;;;;7.05;1.98;;;20.80;99.90;;;;;;5052068;28;20505;-78
2022/06/29 04:46:27;;;;;;;6.72;2.35;;;20.70;99.90;;;;;;5058924;28;20041;-76
2022/06/29 04:48:58;;;;;;;5.65;2.50;;;20.80;99.90;;;;;;5043703;28;20036;-76
2022/06/29 04:51:26;;;;;;;5.10;1.92;;;20.90;99.90;;;;;;5060945;28;20463;-77
2022/06/29 04:53:55;;;;;;;9.93;2.50;;;20.90;99.90;;;;;;5063478;28;20056;-80
2022/06/29 04:56:24;;;;;;;11.63;4.07;;;21.00;99.90;;;;;;5056289;28;20037;-80
2022/06/29 04:58:53;;;;;;;8.10;3.10;;;21.00;99.90;;;;;;5051006;28;20032;-81
2022/06/29 05:01:21;;;;;;;5.22;2.15;;;21.10;99.90;;;;;;5050804;28;20079;-79
2022/06/29 05:03:47;;;;;;;7.85;2.42;;;21.10;99.90;;;;;;5056497;28;20484;-76
2022/06/29 05:06:15;;;;;;;8.38;3.08;;;21.20;99.90;;;;;;5077651;28;20059;-77
2022/06/29 05:08:42;;;;;;;5.10;2.33;;;21.10;99.90;;;;;;5081965;28;20089;-79
2022/06/29 05:11:13;;;;;;;10.45;2.72;;;21.10;99.90;;;;;;5047096;28;20036;-78
2022/06/29 05:13:43;;;;;;;6.38;2.70;;;21.30;99.90;;;;;;5067013;28;20047;-78
2022/06/29 05:16:09;;;;;;;5.97;2.78;;;21.40;99.90;;;;;;5054054;28;20094;-77
2022/06/29 05:18:39;;;;;;;6.72;2.85;;;21.40;99.90;;;;;;5088833;28;20020;-77
2022/06/29 05:21:06;;;;;;;9.15;3.53;;;21.40;99.90;;;;;;5031501;28;20161;-76
2022/06/29 05:23:35;;;;;;;6.75;3.25;;;21.60;99.90;;;;;;5087091;28;20114;-77
2022/06/29 05:26:01;;;;;;;9.57;3.33;;;21.60;99.90;;;;;;5081932;28;20040;-78
2022/06/29 05:28:29;;;;;;;10.27;3.28;;;21.70;99.90;;;;;;5085482;28;20067;-77
2022/06/29 05:30:54;;;;;;;8.38;3.92;;;21.80;99.90;;;;;;5083838;28;20065;-78
2022/06/29 05:33:20;;;;;;;7.55;3.30;;;21.80;99.90;;;;;;5049864;28;20044;-76
2022/06/29 05:35:47;;;;;;;8.68;3.45;;;21.90;99.90;;;;;;5055541;28;20037;-76
2022/06/29 05:38:13;;;;;;;9.05;3.70;;;21.90;99.90;;;;;;5046181;28;20120;-77
2022/06/29 05:40:42;;;;;;;8.25;3.92;;;22.00;99.90;;;;;;5047875;28;20068;-76
2022/06/29 05:43:08;;;;;;;10.73;3.28;;;22.00;99.90;;;;;;5082270;28;20086;-75
2022/06/29 05:45:34;;;;;;;7.20;2.72;;;22.10;99.90;;;;;;5061644;28;20032;-78
2022/06/29 05:48:00;;;;;;;9.63;3.28;;;22.10;99.90;;;;;;5087184;28;20048;-78
2022/06/29 05:50:27;;;;;;;14.05;3.03;;;22.20;99.90;;;;;;5075207;28;20518;-77
2022/06/29 05:52:52;;;;;;;7.72;2.88;;;22.20;99.90;;;;;;5059337;28;20037;-78
2022/06/29 05:55:21;;;;;;;10.90;3.33;;;22.30;99.90;;;;;;5075046;28;20124;-77
2022/06/29 05:57:47;;;;;;;8.77;3.00;;;22.40;99.90;;;;;;5067905;28;20135;-77
2022/06/29 06:00:13;;;;;;;8.98;2.67;;;22.40;99.90;;;;;;5081704;28;20055;-78
2022/06/29 06:02:40;;;;;;;10.05;3.05;;;22.40;99.90;;;;;;5056857;28;20430;-74
2022/06/29 06:05:09;;;;;;;9.52;3.00;;;22.50;99.90;;;;;;5049841;28;20069;-78
2022/06/29 06:07:35;;;;;;;8.15;2.35;;;22.50;99.90;;;;;;5053439;28;20037;-79
2022/06/29 06:10:04;;;;;;;12.80;2.65;;;22.50;99.90;;;;;;5064187;28;20045;-77
2022/06/29 06:12:32;;;;;;;12.50;2.63;;;22.50;99.90;;;;;;5068852;28;20041;-76
2022/06/29 06:15:01;;;;;;;9.45;2.67;;;22.50;99.90;;;;;;5068417;28;20044;-79
2022/06/29 06:17:28;;;;;;;10.27;2.80;;;22.60;99.90;;;;;;5081100;28;20037;-77
2022/06/29 06:19:56;;;;;;;9.93;2.88;;;22.60;99.90;;;;;;5047569;28;20037;-78
2022/06/29 06:22:22;;;;;;;8.85;2.60;;;22.60;99.90;;;;;;5063070;28;20179;-76
2022/06/29 06:24:48;;;;;;;9.10;2.72;;;22.70;99.90;;;;;;5048749;28;20049;-76
2022/06/29 06:27:14;;;;;;;11.38;3.28;;;22.70;99.90;;;;;;5081537;28;20238;-77
2022/06/29 06:29:41;;;;;;;12.15;3.00;;;22.80;99.90;;;;;;5062894;28;20484;-76
2022/06/29 06:32:07;;;;;;;14.38;3.90;;;22.70;99.90;;;;;;5078816;28;20401;-77
2022/06/29 06:34:33;;;;;;;9.10;2.83;;;22.80;99.90;;;;;;5048887;28;20094;-79
2022/06/29 06:37:01;;;;;;;10.88;3.10;;;22.80;99.90;;;;;;5081045;28;20408;-76
2022/06/29 06:39:27;;;;;;;10.23;3.25;;;22.80;99.90;;;;;;5099769;28;20051;-79
2022/06/29 06:41:53;;;;;;;11.02;3.13;;;22.70;99.90;;;;;;5074718;28;20396;-76
2022/06/29 06:44:19;;;;;;;11.73;3.25;;;22.80;99.90;;;;;;5079594;28;20038;-77
2022/06/29 06:46:48;;;;;;;11.50;3.25;;;22.90;99.90;;;;;;5066152;28;20044;-79
2022/06/29 06:49:16;;;;;;;10.88;3.50;;;23.00;99.90;;;;;;5084240;28;20044;-78
2022/06/29 06:51:42;;;;;;;9.95;2.90;;;23.00;99.90;;;;;;5065425;28;20040;-75
2022/06/29 06:54:08;;;;;;;11.45;3.28;;;23.10;99.90;;;;;;5065106;28;20040;-78
2022/06/29 06:56:34;;;;;;;9.85;3.55;;;23.10;99.90;;;;;;5066428;28;20119;-76
2022/06/29 06:59:00;;;;;;;7.43;3.10;;;23.20;99.90;;;;;;5063332;28;20122;-75
2022/06/29 07:01:26;;;;;;;12.05;3.92;;;23.20;99.90;;;;;;5063079;28;20036;-80
2022/06/29 07:03:53;;;;;;;8.82;2.88;;;23.30;99.90;;;;;;5066220;28;20044;-76
2022/06/29 07:06:19;;;;;;;10.95;3.25;;;23.40;99.90;;;;;;5065368;28;20043;-75
2022/06/29 07:08:46;;;;;;;10.95;3.95;;;23.40;99.90;;;;;;5083648;28;20037;-78
2022/06/29 07:11:13;;;;;;;9.20;3.33;;;23.40;99.90;;;;;;5078389;28;20139;-77
2022/06/29 07:13:39;;;;;;;7.22;2.97;;;23.40;99.90;;;;;;5065977;28;20029;-76
2022/06/29 07:16:05;;;;;;;12.88;3.65;;;23.50;99.90;;;;;;5063933;28;20098;-76
2022/06/29 07:18:32;;;;;;;7.88;2.92;;;23.60;99.90;;;;;;5078417;28;20101;-76
2022/06/29 07:20:58;;;;;;;10.90;3.63;;;23.60;99.90;;;;;;5063589;28;21017;-79
2022/06/29 07:23:25;;;;;;;12.10;2.75;;;23.60;99.90;;;;;;5063534;28;20033;-74
2022/06/29 07:25:50;;;;;;;6.60;2.92;;;23.60;99.90;;;;;;5054661;28;20079;-76
2022/06/29 07:28:18;;;;;;;18.52;3.47;;;23.70;99.90;;;;;;5057447;28;20032;-75
2022/06/29 07:30:44;;;;;;;10.60;3.63;;;23.80;99.90;;;;;;5067303;28;20090;-75
2022/06/29 07:33:09;;;;;;;14.45;3.97;;;23.90;99.90;;;;;;5072798;28;20036;-76
2022/06/29 07:35:36;;;;;;;12.07;3.22;;;24.00;99.90;;;;;;5045355;28;20081;-79
2022/06/29 07:38:02;;;;;;;13.73;3.67;;;24.00;99.90;;;;;;5067258;28;20048;-75
2022/06/29 07:40:30;;;;;;;10.93;3.20;;;24.10;99.90;;;;;;5054335;28;20063;-74
2022/06/29 07:42:56;;;;;;;9.07;3.25;;;24.20;99.90;;;;;;5060080;28;20427;-80
2022/06/29 07:45:22;;;;;;;10.55;3.10;;;24.10;99.90;;;;;;5078461;28;20062;-78
2022/06/29 07:47:49;;;;;;;10.50;3.08;;;24.30;99.90;;;;;;5059702;28;20075;-75
2022/06/29 07:50:15;;;;;;;7.97;3.30;;;24.30;99.90;;;;;;5071630;28;20071;-80
2022/06/29 07:52:42;;;;;;;6.85;2.80;;;24.20;99.90;;;;;;5059654;28;20132;-77
2022/06/29 07:55:12;;;;;;;10.45;2.95;;;24.30;99.90;;;;;;5056064;28;20052;-76
2022/06/29 07:57:40;;;;;;;9.05;3.17;;;24.40;99.90;;;;;;5058891;28;20037;-81
2022/06/29 08:00:07;;;;;;;18.58;3.63;;;24.50;99.90;;;;;;5068733;28;20036;-75
2022/06/29 08:02:33;;;;;;;10.02;2.95;;;24.40;99.90;;;;;;5057687;28;20043;-76
2022/06/29 08:05:01;;;;;;;11.23;2.80;;;24.40;99.90;;;;;;5073952;28;20400;-76
2022/06/29 08:07:29;;;;;;;9.13;2.55;;;24.40;99.90;;;;;;5069458;28;20037;-78
2022/06/29 08:09:56;;;;;;;11.73;2.78;;;24.50;99.90;;;;;;5059518;28;20049;-78
2022/06/29 08:12:21;;;;;;;8.98;2.85;;;24.70;99.90;;;;;;5053660;28;20067;-77
2022/06/29 08:14:47;;;;;;;9.32;2.95;;;24.50;99.90;;;;;;5059981;28;20033;-77
2022/06/29 08:17:14;;;;;;;8.48;2.80;;;24.40;99.90;;;;;;5070597;28;20380;-76
2022/06/29 08:19:41;;;;;;;7.30;2.47;;;24.50;99.90;;;;;;5053532;28;20151;-78
2022/06/29 08:22:08;;;;;;;12.63;3.17;;;24.50;99.90;;;;;;5070427;28;20054;-77
2022/06/29 08:24:34;;;;;;;8.05;2.13;;;24.80;99.90;;;;;;5053514;28;20558;-77
2022/06/29 08:27:01;;;;;;;12.82;2.97;;;24.60;99.90;;;;;;5052192;28;20079;-78
2022/06/29 08:29:27;;;;;;;15.18;2.70;;;24.70;99.90;;;;;;5054517;28;20040;-76
2022/06/29 08:31:53;;;;;;;14.68;2.50;;;25.00;99.90;;;;;;5059816;28;20104;-77
2022/06/29 08:34:24;;;;;;;8.73;2.47;;;25.20;99.90;;;;;;5039612;28;20051;-78
2022/06/29 08:36:50;;;;;;;10.20;3.25;;;25.10;99.90;;;;;;5054642;28;20093;-76
2022/06/29 08:39:17;;;;;;;9.30;2.58;;;25.10;99.90;;;;;;5057045;28;20045;-79
2022/06/29 08:41:43;;;;;;;6.38;2.30;;;25.20;99.90;;;;;;5053172;28;20071;-79
2022/06/29 08:44:09;;;;;;;9.00;2.58;;;26.50;99.90;;;;;;5057407;28;21623;-77
2022/06/29 08:46:35;;;;;;;11.15;3.00;;;27.40;99.90;;;;;;5055428;28;20044;-75
2022/06/29 08:49:03;;;;;;;8.23;2.90;;;28.00;99.90;;;;;;5055794;28;20033;-79
2022/06/29 08:51:34;;;;;;;13.90;2.92;;;28.40;99.90;;;;;;5049991;28;20087;-77
2022/06/29 08:54:06;;;;;;;6.25;2.08;;;29.00;99.90;;;;;;5053966;28;20048;-79
2022/06/29 08:56:34;;;;;;;9.23;2.63;;;29.20;99.90;;;;;;5051362;28;20109;-77
2022/06/29 08:59:03;;;;;;;13.23;2.90;;;28.60;99.90;;;;;;5058656;28;20064;-79
2022/06/29 09:01:29;;;;;;;10.82;2.97;;;27.30;99.90;;;;;;5075186;28;20047;-78
2022/06/29 09:03:55;;;;;;;12.65;2.97;;;27.80;99.90;;;;;;5070902;28;20048;-77
2022/06/29 09:06:22;;;;;;;13.20;2.95;;;28.80;99.90;;;;;;5051663;28;20496;-76
2022/06/29 09:08:50;;;;;;;10.15;3.10;;;30.10;99.90;;;;;;5071440;28;20119;-78
2022/06/29 09:11:23;;;;;;;11.23;3.22;;;30.40;99.90;;;;;;5056744;28;20093;-77
2022/06/29 09:14:12;;;;;;;10.27;3.10;;;29.80;99.90;;;;;;5073178;28;20040;-76
2022/06/29 09:16:51;;;;;;;8.85;3.25;;;29.30;99.90;;;;;;5037767;28;20044;-81
2022/06/29 09:19:18;;;;;;;13.23;3.60;;;29.50;99.90;;;;;;5053331;28;20033;-79
2022/06/29 09:21:49;;;;;;;16.02;3.33;;;29.50;99.90;;;;;;5053259;28;20037;-76
2022/06/29 09:24:21;;;;;;;7.13;2.78;;;29.00;99.90;;;;;;5053564;28;20056;-82
2022/06/29 09:26:56;;;;;;;8.25;2.72;;;29.10;99.90;;;;;;5032328;28;20064;-77
2022/06/29 09:29:24;;;;;;;12.10;3.03;;;29.30;99.90;;;;;;5079919;28;20037;-78
2022/06/29 09:32:09;;;;;;;12.27;3.20;;;29.70;99.90;;;;;;5036272;28;20040;-77
2022/06/29 09:34:43;;;;;;;10.48;2.90;;;30.00;99.90;;;;;;5035716;28;20116;-80
2022/06/29 09:37:15;;;;;;;12.93;3.20;;;30.20;99.90;;;;;;5048415;28;20056;-78
2022/06/29 09:39:49;;;;;;;12.20;2.90;;;30.00;99.90;;;;;;5043698;28;20563;-77
2022/06/29 09:42:19;;;;;;;11.23;2.58;;;29.60;99.90;;;;;;5045459;28;20110;-76
2022/06/29 09:44:48;;;;;;;8.23;2.70;;;29.90;99.90;;;;;;5031797;28;20041;-78
2022/06/29 09:47:16;;;;;;;13.13;3.08;;;29.50;99.90;;;;;;5046390;28;20072;-76
2022/06/29 09:49:45;;;;;;;13.52;2.38;;;29.20;99.90;;;;;;5034080;28;20033;-76
2022/06/29 09:52:14;;;;;;;11.93;2.40;;;29.60;99.90;;;;;;5058023;28;20053;-78
2022/06/29 09:54:55;;;;;;;10.88;2.78;;;29.20;99.90;;;;;;5036166;28;20048;-78
2022/06/29 09:57:25;;;;;;;11.50;3.25;;;29.50;99.90;;;;;;5033109;28;20045;-77
2022/06/29 10:02:52;;;;;;;10.90;3.00;;;29.90;99.90;;;;;;5033483;28;20556;-77
2022/06/29 10:05:22;;;;;;;10.60;2.50;;;29.20;99.90;;;;;;5033557;28;20041;-80
2022/06/29 10:07:51;;;;;;;8.88;3.13;;;28.40;99.90;;;;;;5033101;28;20037;-77
2022/06/29 10:10:26;;;;;;;10.15;2.47;;;29.40;99.90;;;;;;5034605;28;20610;-77
2022/06/29 10:16:07;;;;;;;7.70;2.70;;;28.80;99.90;;;;;;5057468;28;20048;-75
2022/06/29 10:18:39;;;;;;;8.75;2.88;;;29.40;99.90;;;;;;5068911;28;20085;-77
2022/06/29 10:21:22;;;;;;;10.75;2.83;;;29.50;99.90;;;;;;5074969;28;20051;-78
2022/06/29 10:23:55;;;;;;;11.98;2.53;;;29.80;99.90;;;;;;5036481;28;20041;-76
2022/06/29 10:26:35;;;;;;;11.80;2.40;;;29.40;99.90;;;;;;5059233;28;20500;-76
2022/06/29 10:29:10;;;;;;;8.20;2.42;;;29.60;99.90;;;;;;5073832;28;20033;-76
2022/06/29 10:31:52;;;;;;;11.23;2.40;;;29.60;99.90;;;;;;5058381;28;20045;-79
2022/06/29 10:34:26;;;;;;;;;;;29.70;99.90;;;;;;5071391;28;20111;-75
2022/06/29 10:37:14;;;;;;;12.65;3.22;;;29.60;99.90;;;;;;5050308;28;19932;-77
2022/06/29 10:39:48;;;;;;;12.63;3.35;;;29.10;99.90;;;;;;5036744;28;20040;-76
2022/06/29 10:45:24;;;;;;;8.63;2.70;;;30.70;99.90;;;;;;5072120;28;20090;-77
2022/06/29 10:47:57;;;;;;;8.32;2.47;;;29.70;99.90;;;;;;5066157;28;20058;-76
2022/06/29 10:50:25;;;;;;;11.55;2.75;;;29.10;99.90;;;;;;5054221;28;20048;-75
2022/06/29 10:53:06;;;;;;;11.77;3.08;;;29.50;99.90;;;;;;5058205;28;20043;-80
2022/06/29 10:55:34;;;;;;;11.48;2.60;;;29.90;99.90;;;;;;5025261;28;20116;-75
2022/06/29 10:58:02;;;;;;;11.75;2.97;;;29.40;99.90;;;;;;5068597;28;20042;-75
2022/06/29 11:00:34;;;;;;;10.80;2.90;;;28.50;99.90;;;;;;5043618;28;20064;-78
2022/06/29 11:03:19;;;;;;;10.18;2.67;;;28.60;99.90;;;;;;5044344;28;20037;-76
2022/06/29 11:15:39;;;;;;;13.05;3.28;;;28.60;99.90;;;;;;5062724;28;20191;-76
2022/06/29 11:16:55;;;;;;;13.88;3.45;;;29.00;99.90;;;;;;5069750;28;20048;-79
2022/06/29 11:19:36;;;;;;;18.65;3.42;;;28.80;99.90;;;;;;5079245;28;20385;-77
2022/06/29 11:22:17;;;;;;;7.05;2.78;;;29.10;99.90;;;;;;5073530;28;20033;-78
2022/06/29 11:24:51;;;;;;;10.88;3.42;;;27.90;99.90;;;;;;5069318;28;20032;-79
2022/06/29 11:27:36;;;;;;;9.48;3.00;;;28.70;99.90;;;;;;5071168;28;20048;-78
2022/06/29 11:30:05;;;;;;;9.68;3.60;;;28.40;99.90;;;;;;5069014;28;20044;-81
2022/06/29 11:32:44;;;;;;;11.68;3.00;;;28.80;99.90;;;;;;5071516;28;20040;-81
2022/06/29 11:35:12;;;;;;;9.30;2.85;;;28.00;99.90;;;;;;5064532;28;20037;-79
2022/06/29 11:38:01;;;;;;;9.60;3.03;;;28.70;99.90;;;;;;5054750;28;20041;-80
2022/06/29 11:40:41;;;;;;;10.52;3.30;;;28.50;99.90;;;;;;5040216;28;20047;-75
2022/06/29 11:43:13;;;;;;;11.15;3.15;;;28.20;99.90;;;;;;5058341;28;20036;-76
2022/06/29 11:45:46;;;;;;;13.55;3.13;;;28.10;99.90;;;;;;5047041;28;20043;-75
2022/06/29 11:48:15;;;;;;;14.95;4.18;;;28.40;99.90;;;;;;5059866;28;20037;-75
2022/06/29 11:50:49;;;;;;;11.40;3.30;;;28.20;99.90;;;;;;5056731;28;20052;-76
2022/06/29 11:53:38;;;;;;;11.77;3.10;;;27.90;99.90;;;;;;5061072;28;20055;-77
2022/06/29 11:56:17;;;;;;;10.27;2.80;;;28.10;99.90;;;;;;5054519;28;20060;-76
2022/06/29 11:58:50;;;;;;;10.98;3.38;;;28.60;99.90;;;;;;5064040;28;20105;-78
2022/06/29 12:01:21;;;;;;;10.40;2.70;;;28.80;99.90;;;;;;5060771;28;20055;-77
2022/06/29 12:03:52;;;;;;;9.47;2.97;;;28.70;99.90;;;;;;5073781;28;20058;-79
2022/06/29 12:06:23;;;;;;;6.25;2.70;;;28.90;99.90;;;;;;5063376;28;20068;-77
2022/06/29 12:08:50;;;;;;;11.52;2.75;;;28.50;99.90;;;;;;5067600;28;20495;-79
2022/06/29 12:11:17;;;;;;;11.35;2.97;;;27.60;99.90;;;;;;5061993;28;20492;-76
2022/06/29 12:13:44;;;;;;;10.23;3.15;;;28.10;99.90;;;;;;5071985;28;20032;-81
2022/06/29 12:16:10;;;;;;;12.15;3.03;;;28.40;99.90;;;;;;5082642;28;20020;-78
2022/06/29 12:18:37;;;;;;;9.68;3.08;;;28.50;99.90;;;;;;5070128;28;20041;-82
2022/06/29 12:21:05;;;;;;;10.98;2.95;;;29.40;99.90;;;;;;5079479;28;20407;-75
2022/06/29 12:23:32;;;;;;;9.98;2.75;;;29.50;99.90;;;;;;5067226;28;20048;-78
2022/06/29 12:25:59;;;;;;;11.68;2.97;;;28.60;99.90;;;;;;5066049;28;20465;-80
2022/06/29 12:28:24;;;;;;;10.70;2.72;;;28.80;99.90;;;;;;5092247;28;20937;-80
2022/06/29 12:30:51;;;;;;;6.75;2.75;;;29.50;99.90;;;;;;5072404;28;20032;-79
2022/06/29 12:33:19;;;;;;;8.20;2.55;;;29.20;99.90;;;;;;5086736;28;20099;-82
2022/06/29 12:35:45;;;;;;;11.45;2.53;;;29.70;99.90;;;;;;5069921;28;20066;-80
2022/06/29 12:38:11;;;;;;;13.15;2.97;;;29.80;99.90;;;;;;5078628;28;20082;-78
2022/06/29 12:40:38;;;;;;;9.73;2.70;;;29.40;99.90;;;;;;5069313;28;20040;-75
2022/06/29 12:43:05;;;;;;;6.78;2.30;;;28.90;99.90;;;;;;5069954;28;20488;-78
2022/06/29 12:45:31;;;;;;;13.63;2.97;;;29.00;99.90;;;;;;5068267;28;20060;-76
2022/06/29 12:47:57;;;;;;;7.88;2.67;;;29.20;99.90;;;;;;5083095;28;20101;-82
2022/06/29 12:50:25;;;;;;;8.82;2.60;;;29.00;99.90;;;;;;5065667;28;20456;-76
2022/06/29 12:52:53;;;;;;;10.15;3.05;;;29.20;99.90;;;;;;5064143;28;20048;-79
2022/06/29 12:55:21;;;;;;;12.57;2.80;;;29.00;99.90;;;;;;5069076;28;20051;-82
2022/06/29 12:57:48;;;;;;;7.95;2.70;;;29.50;99.90;;;;;;5052676;28;20040;-76
2022/06/29 13:00:16;;;;;;;12.32;2.63;;;29.50;99.90;;;;;;5061661;28;20033;-80
2022/06/29 13:02:43;;;;;;;11.55;2.70;;;29.40;99.90;;;;;;5083815;28;20037;-82
2022/06/29 13:05:10;;;;;;;11.93;3.10;;;29.10;99.90;;;;;;5061936;28;20037;-76
2022/06/29 13:07:39;;;;;;;10.98;3.10;;;29.50;99.90;;;;;;5066293;28;20033;-82
2022/06/29 13:10:06;;;;;;;9.73;3.05;;;29.10;99.90;;;;;;5081238;28;20098;-82
2022/06/29 13:12:33;;;;;;;10.18;2.85;;;28.20;99.90;;;;;;5068146;28;20054;-76